Terminal Aerodrome Forecast
Issued by NWS

Home | Current Version | Previous Version | Text Only | Print | Product List | Glossary On
Versions: 1 2 3 4 5 6 7 8 9 10 11 12 13 14 15 16 17
000
FTUS43 KMKX 181724
TAFENW
TAF
KENW 181724Z 1818/1918 20014G24KT P6SM SKC
     FM182200 20011G22KT P6SM SKC
     FM190000 20008KT P6SM FEW250 WS020/22040KT
     FM190200 21012KT P6SM SKC WS020/23040KT
     FM190600 23008KT P6SM FEW250 WS020/25040KT
     FM190800 25006KT P6SM FEW250
     FM191200 28006KT P6SM FEW250=

USA.gov is the U.S. government's official web portal to all federal, state and local government web resources and services.